EKVJ/STA METAR and TAF weather

Enter ICAO airport designator
Station Type Date Time Source
EKVJ METAR 2022/01/27 15:50 UTC NOAA

EKVJ 271550Z 30016G27KT 260V340 9000 -SHRA SCT025CB 07/06 Q1006


Station Type Date Time Source
EKVJ Decoded METAR 2022/01/27 15:50 UTC NOAA

Stauning Lufthavn, Denmark (EKVJ) 56-00N 008-21E 5M
Jan 27, 2022 - 10:50 AM EST / 2022.01.27 1550 UTC
Wind: from the WNW (300 degrees) at 18 MPH (16 KT) gusting to 31 MPH (27 KT) (direction variable):0
Visibility: 5 mile(s):0
Sky conditions: partly cloudy
Weather: light rain showers; Cumulonimbus clouds observed
Temperature: 44 F (7 C)
Dew Point: 42 F (6 C)
Relative Humidity: 93%
Pressure (altimeter): 29.71 in. Hg (1006 hPa)
ob: EKVJ 271550Z 30016G27KT 260V340 9000 -SHRA SCT025CB 07/06 Q1006
cycle: 16

Station Type Date Time Source
EKVJ TAF UTC NOAA

Error!

Example: see airport list